sensor_id;sensor_type;location;lat;lon;timestamp;temperature;humidity
4183;DHT22;2105;52.300;9.182;2023-04-24T00:00:08;12.40;1.00
4183;DHT22;2105;52.300;9.182;2023-04-24T00:02:35;12.50;1.00
4183;DHT22;2105;52.300;9.182;2023-04-24T00:05:04;12.50;1.00
4183;DHT22;2105;52.300;9.182;2023-04-24T00:07:31;12.50;1.00
4183;DHT22;2105;52.300;9.182;2023-04-24T00:09:59;12.50;99.90
4183;DHT22;2105;52.300;9.182;2023-04-24T00:12:26;12.60;1.00
4183;DHT22;2105;52.300;9.182;2023-04-24T00:14:53;12.60;99.90
4183;DHT22;2105;52.300;9.182;2023-04-24T00:17:19;12.60;1.00
4183;DHT22;2105;52.300;9.182;2023-04-24T00:19:46;12.60;1.00
4183;DHT22;2105;52.300;9.182;2023-04-24T00:22:13;12.50;99.90
4183;DHT22;2105;52.300;9.182;2023-04-24T00:24:40;12.50;99.90
4183;DHT22;2105;52.300;9.182;2023-04-24T00:27:08;12.50;1.00
4183;DHT22;2105;52.300;9.182;2023-04-24T00:29:34;12.40;1.00
4183;DHT22;2105;52.300;9.182;2023-04-24T00:32:01;12.40;1.00
4183;DHT22;2105;52.300;9.182;2023-04-24T00:34:28;12.30;99.90
4183;DHT22;2105;52.300;9.182;2023-04-24T00:36:55;12.30;1.00
4183;DHT22;2105;52.300;9.182;2023-04-24T00:39:21;12.20;1.00
4183;DHT22;2105;52.300;9.182;2023-04-24T00:41:49;12.20;1.00
4183;DHT22;2105;52.300;9.182;2023-04-24T00:44:17;12.10;1.00
4183;DHT22;2105;52.300;9.182;2023-04-24T00:46:44;12.10;1.00
4183;DHT22;2105;52.300;9.182;2023-04-24T00:49:12;12.10;91.80
4183;DHT22;2105;52.300;9.182;2023-04-24T00:51:39;12.00;99.90
4183;DHT22;2105;52.300;9.182;2023-04-24T00:54:10;11.90;99.90
4183;DHT22;2105;52.300;9.182;2023-04-24T00:56:37;11.90;25.30
4183;DHT22;2105;52.300;9.182;2023-04-24T00:59:04;11.80;95.80
4183;DHT22;2105;52.300;9.182;2023-04-24T01:01:32;11.70;99.90
4183;DHT22;2105;52.300;9.182;2023-04-24T01:03:59;11.70;99.90
4183;DHT22;2105;52.300;9.182;2023-04-24T01:06:28;11.60;99.90
4183;DHT22;2105;52.300;9.182;2023-04-24T01:08:56;11.60;99.90
4183;DHT22;2105;52.300;9.182;2023-04-24T01:11:24;11.60;99.90
4183;DHT22;2105;52.300;9.182;2023-04-24T01:13:51;11.50;99.90
4183;DHT22;2105;52.300;9.182;2023-04-24T01:16:18;11.50;99.90
4183;DHT22;2105;52.300;9.182;2023-04-24T01:18:47;11.50;99.90
4183;DHT22;2105;52.300;9.182;2023-04-24T01:21:15;11.40;1.00
4183;DHT22;2105;52.300;9.182;2023-04-24T01:23:44;11.40;1.00
4183;DHT22;2105;52.300;9.182;2023-04-24T01:26:11;11.50;1.00
4183;DHT22;2105;52.300;9.182;2023-04-24T01:28:38;11.40;1.00
4183;DHT22;2105;52.300;9.182;2023-04-24T01:31:04;11.40;1.00
4183;DHT22;2105;52.300;9.182;2023-04-24T01:33:31;11.40;4.40
4183;DHT22;2105;52.300;9.182;2023-04-24T01:35:58;11.20;99.90
4183;DHT22;2105;52.300;9.182;2023-04-24T01:38:26;11.30;99.90
4183;DHT22;2105;52.300;9.182;2023-04-24T01:40:54;11.10;1.00
4183;DHT22;2105;52.300;9.182;2023-04-24T01:43:21;11.00;28.20
4183;DHT22;2105;52.300;9.182;2023-04-24T01:45:47;11.10;1.00
4183;DHT22;2105;52.300;9.182;2023-04-24T01:48:14;11.00;1.00
4183;DHT22;2105;52.300;9.182;2023-04-24T01:50:41;11.00;99.90
4183;DHT22;2105;52.300;9.182;2023-04-24T01:53:08;11.10;1.00
4183;DHT22;2105;52.300;9.182;2023-04-24T01:55:35;11.10;1.00
4183;DHT22;2105;52.300;9.182;2023-04-24T01:58:03;11.20;1.00
4183;DHT22;2105;52.300;9.182;2023-04-24T02:00:30;11.30;1.00
4183;DHT22;2105;52.300;9.182;2023-04-24T02:02:56;11.20;1.00
4183;DHT22;2105;52.300;9.182;2023-04-24T02:05:23;11.30;1.00
4183;DHT22;2105;52.300;9.182;2023-04-24T02:07:49;11.30;73.30
4183;DHT22;2105;52.300;9.182;2023-04-24T02:10:16;11.20;45.90
4183;DHT22;2105;52.300;9.182;2023-04-24T02:12:43;11.30;99.90
4183;DHT22;2105;52.300;9.182;2023-04-24T02:15:11;11.30;1.00
4183;DHT22;2105;52.300;9.182;2023-04-24T02:17:38;11.40;1.00
4183;DHT22;2105;52.300;9.182;2023-04-24T02:20:06;11.40;1.00
4183;DHT22;2105;52.300;9.182;2023-04-24T02:22:33;11.50;99.90
4183;DHT22;2105;52.300;9.182;2023-04-24T02:25:00;11.50;99.90
4183;DHT22;2105;52.300;9.182;2023-04-24T02:27:27;11.50;99.90
4183;DHT22;2105;52.300;9.182;2023-04-24T02:29:53;11.40;99.90
4183;DHT22;2105;52.300;9.182;2023-04-24T02:32:21;11.30;1.00
4183;DHT22;2105;52.300;9.182;2023-04-24T02:34:48;11.30;1.00
4183;DHT22;2105;52.300;9.182;2023-04-24T02:37:15;11.20;99.90
4183;DHT22;2105;52.300;9.182;2023-04-24T02:39:41;11.10;1.00
4183;DHT22;2105;52.300;9.182;2023-04-24T02:42:09;11.10;99.90
4183;DHT22;2105;52.300;9.182;2023-04-24T02:44:36;11.10;99.90
4183;DHT22;2105;52.300;9.182;2023-04-24T02:47:02;11.10;99.90
4183;DHT22;2105;52.300;9.182;2023-04-24T02:49:30;11.00;26.10
4183;DHT22;2105;52.300;9.182;2023-04-24T02:51:57;11.10;1.00
4183;DHT22;2105;52.300;9.182;2023-04-24T02:54:23;11.10;1.00
4183;DHT22;2105;52.300;9.182;2023-04-24T02:56:50;11.10;1.00
4183;DHT22;2105;52.300;9.182;2023-04-24T02:59:17;11.10;1.00
4183;DHT22;2105;52.300;9.182;2023-04-24T03:01:43;11.00;35.30
4183;DHT22;2105;52.300;9.182;2023-04-24T03:04:10;11.00;1.00
4183;DHT22;2105;52.300;9.182;2023-04-24T03:06:38;11.00;1.00
4183;DHT22;2105;52.300;9.182;2023-04-24T03:09:05;11.00;1.00
4183;DHT22;2105;52.300;9.182;2023-04-24T03:11:31;11.00;1.00
4183;DHT22;2105;52.300;9.182;2023-04-24T03:13:58;10.90;1.00
4183;DHT22;2105;52.300;9.182;2023-04-24T03:16:24;11.00;1.00
4183;DHT22;2105;52.300;9.182;2023-04-24T03:18:51;11.00;1.00
4183;DHT22;2105;52.300;9.182;2023-04-24T03:21:18;11.00;1.00
4183;DHT22;2105;52.300;9.182;2023-04-24T03:23:46;11.00;1.00
4183;DHT22;2105;52.300;9.182;2023-04-24T03:26:12;11.00;1.00
4183;DHT22;2105;52.300;9.182;2023-04-24T03:28:39;11.00;1.00
4183;DHT22;2105;52.300;9.182;2023-04-24T03:31:06;11.10;1.00
4183;DHT22;2105;52.300;9.182;2023-04-24T03:33:32;11.10;1.00
4183;DHT22;2105;52.300;9.182;2023-04-24T03:35:59;11.10;1.00
4183;DHT22;2105;52.300;9.182;2023-04-24T03:38:26;11.10;1.00
4183;DHT22;2105;52.300;9.182;2023-04-24T03:40:54;11.00;58.80
4183;DHT22;2105;52.300;9.182;2023-04-24T03:43:20;11.00;99.90
4183;DHT22;2105;52.300;9.182;2023-04-24T03:45:47;11.00;99.90
4183;DHT22;2105;52.300;9.182;2023-04-24T03:48:13;10.90;99.90
4183;DHT22;2105;52.300;9.182;2023-04-24T03:50:40;10.80;99.90
4183;DHT22;2105;52.300;9.182;2023-04-24T03:53:07;10.80;1.00
4183;DHT22;2105;52.300;9.182;2023-04-24T03:55:33;10.70;1.00
4183;DHT22;2105;52.300;9.182;2023-04-24T03:58:01;10.80;1.00
4183;DHT22;2105;52.300;9.182;2023-04-24T04:00:28;10.90;1.00
4183;DHT22;2105;52.300;9.182;2023-04-24T04:02:58;11.00;1.00
4183;DHT22;2105;52.300;9.182;2023-04-24T04:05:25;11.00;1.00
4183;DHT22;2105;52.300;9.182;2023-04-24T04:07:51;11.10;1.00
4183;DHT22;2105;52.300;9.182;2023-04-24T04:10:18;11.10;99.90
4183;DHT22;2105;52.300;9.182;2023-04-24T04:12:45;11.20;99.90
4183;DHT22;2105;52.300;9.182;2023-04-24T04:15:12;11.20;99.90
4183;DHT22;2105;52.300;9.182;2023-04-24T04:17:39;11.30;1.00
4183;DHT22;2105;52.300;9.182;2023-04-24T04:20:07;11.30;1.00
4183;DHT22;2105;52.300;9.182;2023-04-24T04:22:35;11.30;1.00
4183;DHT22;2105;52.300;9.182;2023-04-24T04:25:02;11.40;1.00
4183;DHT22;2105;52.300;9.182;2023-04-24T04:27:29;11.40;1.00
4183;DHT22;2105;52.300;9.182;2023-04-24T04:29:57;11.40;1.00
4183;DHT22;2105;52.300;9.182;2023-04-24T04:32:26;11.50;1.00
4183;DHT22;2105;52.300;9.182;2023-04-24T04:34:52;11.50;99.90
4183;DHT22;2105;52.300;9.182;2023-04-24T04:37:19;11.50;99.90
4183;DHT22;2105;52.300;9.182;2023-04-24T04:39:46;11.50;99.90
4183;DHT22;2105;52.300;9.182;2023-04-24T04:42:12;11.50;1.00
4183;DHT22;2105;52.300;9.182;2023-04-24T04:44:40;11.50;1.00
4183;DHT22;2105;52.300;9.182;2023-04-24T04:47:08;11.50;1.00
4183;DHT22;2105;52.300;9.182;2023-04-24T04:49:37;11.50;1.00
4183;DHT22;2105;52.300;9.182;2023-04-24T04:52:04;11.50;1.00
4183;DHT22;2105;52.300;9.182;2023-04-24T04:54:30;11.50;1.00
4183;DHT22;2105;52.300;9.182;2023-04-24T04:56:57;11.50;1.00
4183;DHT22;2105;52.300;9.182;2023-04-24T04:59:24;11.50;1.00
4183;DHT22;2105;52.300;9.182;2023-04-24T05:01:51;11.60;1.00
4183;DHT22;2105;52.300;9.182;2023-04-24T05:04:17;11.50;1.00
4183;DHT22;2105;52.300;9.182;2023-04-24T05:06:45;11.50;1.00
4183;DHT22;2105;52.300;9.182;2023-04-24T05:09:13;11.50;1.00
4183;DHT22;2105;52.300;9.182;2023-04-24T05:11:40;11.60;99.90
4183;DHT22;2105;52.300;9.182;2023-04-24T05:14:07;11.50;99.90
4183;DHT22;2105;52.300;9.182;2023-04-24T05:16:33;11.50;99.90
4183;DHT22;2105;52.300;9.182;2023-04-24T05:19:00;11.60;99.90
4183;DHT22;2105;52.300;9.182;2023-04-24T05:21:26;11.60;1.00
4183;DHT22;2105;52.300;9.182;2023-04-24T05:23:54;11.50;1.00
4183;DHT22;2105;52.300;9.182;2023-04-24T05:26:21;11.50;1.00
4183;DHT22;2105;52.300;9.182;2023-04-24T05:28:48;11.50;1.00
4183;DHT22;2105;52.300;9.182;2023-04-24T05:31:15;11.50;54.50
4183;DHT22;2105;52.300;9.182;2023-04-24T05:33:43;11.50;99.90
4183;DHT22;2105;52.300;9.182;2023-04-24T05:36:09;11.60;99.90
4183;DHT22;2105;52.300;9.182;2023-04-24T05:38:36;11.60;99.90
4183;DHT22;2105;52.300;9.182;2023-04-24T05:41:04;11.60;99.90
4183;DHT22;2105;52.300;9.182;2023-04-24T05:43:30;11.50;99.90
4183;DHT22;2105;52.300;9.182;2023-04-24T05:45:57;11.50;99.90
4183;DHT22;2105;52.300;9.182;2023-04-24T05:48:24;11.60;99.90
4183;DHT22;2105;52.300;9.182;2023-04-24T05:50:51;11.60;99.90
4183;DHT22;2105;52.300;9.182;2023-04-24T05:53:18;11.50;99.90
4183;DHT22;2105;52.300;9.182;2023-04-24T05:55:45;11.60;99.90
4183;DHT22;2105;52.300;9.182;2023-04-24T05:58:13;11.40;99.90
4183;DHT22;2105;52.300;9.182;2023-04-24T06:00:40;11.30;1.00
4183;DHT22;2105;52.300;9.182;2023-04-24T06:03:08;11.30;49.40
4183;DHT22;2105;52.300;9.182;2023-04-24T06:05:35;11.20;99.90
4183;DHT22;2105;52.300;9.182;2023-04-24T06:08:01;11.10;99.90
4183;DHT22;2105;52.300;9.182;2023-04-24T06:10:28;11.00;99.90
4183;DHT22;2105;52.300;9.182;2023-04-24T06:12:54;10.90;99.90
4183;DHT22;2105;52.300;9.182;2023-04-24T06:15:27;10.80;99.90
4183;DHT22;2105;52.300;9.182;2023-04-24T06:17:54;10.80;99.90
4183;DHT22;2105;52.300;9.182;2023-04-24T06:20:21;10.90;99.90
4183;DHT22;2105;52.300;9.182;2023-04-24T06:22:47;10.80;99.90
4183;DHT22;2105;52.300;9.182;2023-04-24T06:25:14;10.90;99.90
4183;DHT22;2105;52.300;9.182;2023-04-24T06:27:41;11.00;99.90
4183;DHT22;2105;52.300;9.182;2023-04-24T06:30:09;11.00;99.90
4183;DHT22;2105;52.300;9.182;2023-04-24T06:32:37;11.30;47.10
4183;DHT22;2105;52.300;9.182;2023-04-24T06:35:04;11.40;1.00
4183;DHT22;2105;52.300;9.182;2023-04-24T06:37:32;11.40;1.00
4183;DHT22;2105;52.300;9.182;2023-04-24T06:39:59;11.30;1.00
4183;DHT22;2105;52.300;9.182;2023-04-24T06:42:25;11.20;1.00
4183;DHT22;2105;52.300;9.182;2023-04-24T06:44:52;11.10;1.00
4183;DHT22;2105;52.300;9.182;2023-04-24T06:47:19;11.10;98.40
4183;DHT22;2105;52.300;9.182;2023-04-24T06:49:47;11.10;99.90
4183;DHT22;2105;52.300;9.182;2023-04-24T06:52:16;11.10;99.90
4183;DHT22;2105;52.300;9.182;2023-04-24T06:54:42;11.00;99.90
4183;DHT22;2105;52.300;9.182;2023-04-24T06:57:09;11.00;99.90
4183;DHT22;2105;52.300;9.182;2023-04-24T06:59:36;10.90;99.90
4183;DHT22;2105;52.300;9.182;2023-04-24T07:02:02;11.00;99.90
4183;DHT22;2105;52.300;9.182;2023-04-24T07:04:30;11.00;99.90
4183;DHT22;2105;52.300;9.182;2023-04-24T07:06:58;11.00;99.90
4183;DHT22;2105;52.300;9.182;2023-04-24T07:09:26;11.00;99.90
4183;DHT22;2105;52.300;9.182;2023-04-24T07:11:53;11.00;99.90
4183;DHT22;2105;52.300;9.182;2023-04-24T07:14:21;11.00;99.90
4183;DHT22;2105;52.300;9.182;2023-04-24T07:16:48;11.00;1.00
4183;DHT22;2105;52.300;9.182;2023-04-24T07:19:15;10.90;99.90
4183;DHT22;2105;52.300;9.182;2023-04-24T07:21:41;10.90;1.00
4183;DHT22;2105;52.300;9.182;2023-04-24T07:24:10;10.90;99.90
4183;DHT22;2105;52.300;9.182;2023-04-24T07:26:38;10.90;99.90
4183;DHT22;2105;52.300;9.182;2023-04-24T07:29:05;10.80;1.00
4183;DHT22;2105;52.300;9.182;2023-04-24T07:31:33;10.70;99.90
4183;DHT22;2105;52.300;9.182;2023-04-24T07:34:00;10.70;99.90
4183;DHT22;2105;52.300;9.182;2023-04-24T07:36:27;10.70;99.90
4183;DHT22;2105;52.300;9.182;2023-04-24T07:38:54;10.60;99.90
4183;DHT22;2105;52.300;9.182;2023-04-24T07:41:24;10.60;99.90
4183;DHT22;2105;52.300;9.182;2023-04-24T07:43:53;10.60;99.90
4183;DHT22;2105;52.300;9.182;2023-04-24T07:46:20;10.60;99.90
4183;DHT22;2105;52.300;9.182;2023-04-24T07:48:47;10.70;99.90
4183;DHT22;2105;52.300;9.182;2023-04-24T07:51:14;10.70;99.90
4183;DHT22;2105;52.300;9.182;2023-04-24T07:53:41;10.70;1.00
4183;DHT22;2105;52.300;9.182;2023-04-24T07:56:08;10.70;1.00
4183;DHT22;2105;52.300;9.182;2023-04-24T07:58:36;10.80;99.90
4183;DHT22;2105;52.300;9.182;2023-04-24T08:01:03;10.90;99.90
4183;DHT22;2105;52.300;9.182;2023-04-24T08:03:30;10.90;99.90
4183;DHT22;2105;52.300;9.182;2023-04-24T08:05:57;10.90;1.00
4183;DHT22;2105;52.300;9.182;2023-04-24T08:08:25;11.00;1.00
4183;DHT22;2105;52.300;9.182;2023-04-24T08:10:52;11.00;1.00
4183;DHT22;2105;52.300;9.182;2023-04-24T08:13:19;11.10;1.00
4183;DHT22;2105;52.300;9.182;2023-04-24T08:15:47;11.10;1.00
4183;DHT22;2105;52.300;9.182;2023-04-24T08:18:13;11.00;1.00
4183;DHT22;2105;52.300;9.182;2023-04-24T08:20:41;11.00;1.00
4183;DHT22;2105;52.300;9.182;2023-04-24T08:23:09;11.00;1.00
4183;DHT22;2105;52.300;9.182;2023-04-24T08:25:36;11.00;58.50
4183;DHT22;2105;52.300;9.182;2023-04-24T08:28:03;11.00;1.00
4183;DHT22;2105;52.300;9.182;2023-04-24T08:30:30;11.00;1.00
4183;DHT22;2105;52.300;9.182;2023-04-24T08:32:58;11.00;1.00
4183;DHT22;2105;52.300;9.182;2023-04-24T08:35:25;11.00;1.00
4183;DHT22;2105;52.300;9.182;2023-04-24T08:37:52;11.00;1.00
4183;DHT22;2105;52.300;9.182;2023-04-24T08:40:27;11.10;1.00
4183;DHT22;2105;52.300;9.182;2023-04-24T08:42:55;11.10;1.00
4183;DHT22;2105;52.300;9.182;2023-04-24T08:45:23;11.10;99.90
4183;DHT22;2105;52.300;9.182;2023-04-24T08:47:52;11.00;99.90
4183;DHT22;2105;52.300;9.182;2023-04-24T08:50:21;11.00;99.90
4183;DHT22;2105;52.300;9.182;2023-04-24T08:52:51;11.00;99.90
4183;DHT22;2105;52.300;9.182;2023-04-24T08:55:19;11.00;1.00
4183;DHT22;2105;52.300;9.182;2023-04-24T08:57:50;11.00;1.00
4183;DHT22;2105;52.300;9.182;2023-04-24T09:00:18;11.10;1.00
4183;DHT22;2105;52.300;9.182;2023-04-24T09:02:47;11.10;1.00
4183;DHT22;2105;52.300;9.182;2023-04-24T09:05:16;11.10;1.00
4183;DHT22;2105;52.300;9.182;2023-04-24T09:07:49;11.10;1.00
4183;DHT22;2105;52.300;9.182;2023-04-24T09:10:16;11.10;1.00
4183;DHT22;2105;52.300;9.182;2023-04-24T09:12:44;11.10;1.00
4183;DHT22;2105;52.300;9.182;2023-04-24T09:15:11;11.00;1.00
4183;DHT22;2105;52.300;9.182;2023-04-24T09:17:38;11.00;99.90
4183;DHT22;2105;52.300;9.182;2023-04-24T09:20:06;11.10;1.00
4183;DHT22;2105;52.300;9.182;2023-04-24T09:22:33;11.20;1.00
4183;DHT22;2105;52.300;9.182;2023-04-24T09:25:04;11.20;1.00
4183;DHT22;2105;52.300;9.182;2023-04-24T09:27:32;11.20;1.00
4183;DHT22;2105;52.300;9.182;2023-04-24T09:29:59;11.30;99.90
4183;DHT22;2105;52.300;9.182;2023-04-24T09:32:26;11.20;99.90
4183;DHT22;2105;52.300;9.182;2023-04-24T09:35:06;11.20;99.90
4183;DHT22;2105;52.300;9.182;2023-04-24T09:37:35;11.30;1.00
4183;DHT22;2105;52.300;9.182;2023-04-24T09:40:17;11.30;1.00
4183;DHT22;2105;52.300;9.182;2023-04-24T09:42:45;11.50;99.90
4183;DHT22;2105;52.300;9.182;2023-04-24T09:45:12;11.70;99.90
4183;DHT22;2105;52.300;9.182;2023-04-24T09:47:39;11.70;99.90
4183;DHT22;2105;52.300;9.182;2023-04-24T09:50:11;11.90;99.90
4183;DHT22;2105;52.300;9.182;2023-04-24T09:52:42;11.80;34.10
4183;DHT22;2105;52.300;9.182;2023-04-24T09:55:16;11.70;25.90
4183;DHT22;2105;52.300;9.182;2023-04-24T09:57:51;11.60;99.90
4183;DHT22;2105;52.300;9.182;2023-04-24T10:00:21;11.60;79.50
4183;DHT22;2105;52.300;9.182;2023-04-24T10:02:54;11.60;99.90
4183;DHT22;2105;52.300;9.182;2023-04-24T10:05:27;11.60;39.70
4183;DHT22;2105;52.300;9.182;2023-04-24T10:07:59;11.50;99.90
4183;DHT22;2105;52.300;9.182;2023-04-24T10:10:28;11.40;99.90
4183;DHT22;2105;52.300;9.182;2023-04-24T10:12:55;11.30;99.90
4183;DHT22;2105;52.300;9.182;2023-04-24T10:15:22;11.30;99.90
4183;DHT22;2105;52.300;9.182;2023-04-24T10:17:49;11.50;99.90
4183;DHT22;2105;52.300;9.182;2023-04-24T10:20:22;11.70;99.90
4183;DHT22;2105;52.300;9.182;2023-04-24T10:22:50;11.90;99.90
4183;DHT22;2105;52.300;9.182;2023-04-24T10:25:18;11.80;1.00
4183;DHT22;2105;52.300;9.182;2023-04-24T10:27:49;11.80;15.30
4183;DHT22;2105;52.300;9.182;2023-04-24T10:30:17;11.80;1.00
4183;DHT22;2105;52.300;9.182;2023-04-24T10:32:44;11.70;24.50
4183;DHT22;2105;52.300;9.182;2023-04-24T10:35:12;11.50;1.00
4183;DHT22;2105;52.300;9.182;2023-04-24T10:37:43;11.60;99.90
4183;DHT22;2105;52.300;9.182;2023-04-24T10:40:11;11.70;7.90
4183;DHT22;2105;52.300;9.182;2023-04-24T10:42:40;11.90;99.90
4183;DHT22;2105;52.300;9.182;2023-04-24T10:45:17;12.10;1.00
4183;DHT22;2105;52.300;9.182;2023-04-24T10:47:52;12.30;1.00
4183;DHT22;2105;52.300;9.182;2023-04-24T10:50:19;12.10;1.00
4183;DHT22;2105;52.300;9.182;2023-04-24T10:52:46;12.00;1.00
4183;DHT22;2105;52.300;9.182;2023-04-24T10:55:13;11.90;1.00
4183;DHT22;2105;52.300;9.182;2023-04-24T10:58:00;11.80;1.00
4183;DHT22;2105;52.300;9.182;2023-04-24T11:00:29;11.60;1.00
4183;DHT22;2105;52.300;9.182;2023-04-24T11:02:56;11.60;1.00
4183;DHT22;2105;52.300;9.182;2023-04-24T11:05:50;11.50;28.80
4183;DHT22;2105;52.300;9.182;2023-04-24T11:08:25;11.50;99.90
4183;DHT22;2105;52.300;9.182;2023-04-24T11:11:11;11.40;58.70
4183;DHT22;2105;52.300;9.182;2023-04-24T11:14:00;11.40;99.90
4183;DHT22;2105;52.300;9.182;2023-04-24T11:16:31;11.40;99.90
4183;DHT22;2105;52.300;9.182;2023-04-24T11:19:03;11.50;99.90
4183;DHT22;2105;52.300;9.182;2023-04-24T11:21:32;11.50;99.90
4183;DHT22;2105;52.300;9.182;2023-04-24T11:24:23;11.50;99.90
4183;DHT22;2105;52.300;9.182;2023-04-24T11:26:51;11.90;99.90
4183;DHT22;2105;52.300;9.182;2023-04-24T11:29:20;12.00;99.90
4183;DHT22;2105;52.300;9.182;2023-04-24T11:31:49;11.80;1.00
4183;DHT22;2105;52.300;9.182;2023-04-24T11:34:17;11.70;70.50
4183;DHT22;2105;52.300;9.182;2023-04-24T11:36:45;11.50;59.10
4183;DHT22;2105;52.300;9.182;2023-04-24T11:39:12;11.50;99.90
4183;DHT22;2105;52.300;9.182;2023-04-24T11:41:39;11.60;99.90
4183;DHT22;2105;52.300;9.182;2023-04-24T11:44:07;11.70;99.90
4183;DHT22;2105;52.300;9.182;2023-04-24T11:46:34;11.80;1.00
4183;DHT22;2105;52.300;9.182;2023-04-24T11:49:06;11.70;33.90
4183;DHT22;2105;52.300;9.182;2023-04-24T11:51:34;11.70;40.30
4183;DHT22;2105;52.300;9.182;2023-04-24T11:54:01;11.50;99.90
4183;DHT22;2105;52.300;9.182;2023-04-24T11:56:28;11.30;99.90
4183;DHT22;2105;52.300;9.182;2023-04-24T11:58:55;11.00;1.00
4183;DHT22;2105;52.300;9.182;2023-04-24T12:01:22;10.80;99.90
4183;DHT22;2105;52.300;9.182;2023-04-24T12:03:49;10.70;99.90
4183;DHT22;2105;52.300;9.182;2023-04-24T12:06:17;10.70;1.00
4183;DHT22;2105;52.300;9.182;2023-04-24T12:08:46;10.70;1.00
4183;DHT22;2105;52.300;9.182;2023-04-24T12:11:15;10.80;1.00
4183;DHT22;2105;52.300;9.182;2023-04-24T12:13:43;10.70;99.90
4183;DHT22;2105;52.300;9.182;2023-04-24T12:16:10;10.50;1.00
4183;DHT22;2105;52.300;9.182;2023-04-24T12:18:41;10.30;99.90
4183;DHT22;2105;52.300;9.182;2023-04-24T12:21:15;10.30;1.00
4183;DHT22;2105;52.300;9.182;2023-04-24T12:23:44;10.30;1.00
4183;DHT22;2105;52.300;9.182;2023-04-24T12:26:11;10.30;1.00
4183;DHT22;2105;52.300;9.182;2023-04-24T12:28:38;10.20;1.00
4183;DHT22;2105;52.300;9.182;2023-04-24T12:31:06;10.20;1.00
4183;DHT22;2105;52.300;9.182;2023-04-24T12:33:34;10.20;99.90
4183;DHT22;2105;52.300;9.182;2023-04-24T12:36:01;10.20;99.90
4183;DHT22;2105;52.300;9.182;2023-04-24T12:38:31;10.00;99.90
4183;DHT22;2105;52.300;9.182;2023-04-24T12:41:08;9.90;11.20
4183;DHT22;2105;52.300;9.182;2023-04-24T12:43:36;9.90;99.90
4183;DHT22;2105;52.300;9.182;2023-04-24T12:46:03;10.00;99.90
4183;DHT22;2105;52.300;9.182;2023-04-24T12:48:30;10.00;1.00
4183;DHT22;2105;52.300;9.182;2023-04-24T12:50:57;9.90;99.90
4183;DHT22;2105;52.300;9.182;2023-04-24T12:53:27;9.90;1.00
4183;DHT22;2105;52.300;9.182;2023-04-24T12:55:55;9.90;1.00
4183;DHT22;2105;52.300;9.182;2023-04-24T12:58:23;9.80;1.00
4183;DHT22;2105;52.300;9.182;2023-04-24T13:00:50;9.80;1.00
4183;DHT22;2105;52.300;9.182;2023-04-24T13:03:17;9.70;1.00
4183;DHT22;2105;52.300;9.182;2023-04-24T13:06:04;9.50;1.00
4183;DHT22;2105;52.300;9.182;2023-04-24T13:09:04;9.20;1.00
4183;DHT22;2105;52.300;9.182;2023-04-24T13:11:59;9.10;1.00
4183;DHT22;2105;52.300;9.182;2023-04-24T13:14:47;9.10;99.90
4183;DHT22;2105;52.300;9.182;2023-04-24T13:19:59;9.00;93.60
4183;DHT22;2105;52.300;9.182;2023-04-24T13:22:26;8.90;99.90
4183;DHT22;2105;52.300;9.182;2023-04-24T13:24:52;8.90;99.90
4183;DHT22;2105;52.300;9.182;2023-04-24T13:27:20;8.90;1.00
4183;DHT22;2105;52.300;9.182;2023-04-24T13:29:48;8.90;1.00
4183;DHT22;2105;52.300;9.182;2023-04-24T15:44:12;9.50;1.00
4183;DHT22;2105;52.300;9.182;2023-04-24T15:46:39;9.50;1.00
4183;DHT22;2105;52.300;9.182;2023-04-24T15:49:05;9.40;1.00
4183;DHT22;2105;52.300;9.182;2023-04-24T15:51:32;9.40;1.00
4183;DHT22;2105;52.300;9.182;2023-04-24T15:53:58;9.40;1.00
4183;DHT22;2105;52.300;9.182;2023-04-24T15:56:25;9.30;99.90
4183;DHT22;2105;52.300;9.182;2023-04-24T15:58:52;9.30;1.00
4183;DHT22;2105;52.300;9.182;2023-04-24T16:01:20;9.20;99.90
4183;DHT22;2105;52.300;9.182;2023-04-24T16:03:47;9.10;99.90
4183;DHT22;2105;52.300;9.182;2023-04-24T16:06:14;9.10;1.00
4183;DHT22;2105;52.300;9.182;2023-04-24T16:08:41;9.10;96.30
4183;DHT22;2105;52.300;9.182;2023-04-24T16:11:07;9.10;1.00
4183;DHT22;2105;52.300;9.182;2023-04-24T16:13:34;9.00;99.90
4183;DHT22;2105;52.300;9.182;2023-04-24T16:16:00;8.90;45.30
4183;DHT22;2105;52.300;9.182;2023-04-24T16:18:28;8.90;99.90
4183;DHT22;2105;52.300;9.182;2023-04-24T16:20:55;8.80;99.90
4183;DHT22;2105;52.300;9.182;2023-04-24T16:23:22;8.80;99.90
4183;DHT22;2105;52.300;9.182;2023-04-24T16:25:49;8.80;1.00
4183;DHT22;2105;52.300;9.182;2023-04-24T16:28:15;8.80;1.00
4183;DHT22;2105;52.300;9.182;2023-04-24T16:30:42;8.80;1.00
4183;DHT22;2105;52.300;9.182;2023-04-24T16:33:09;8.90;1.00
4183;DHT22;2105;52.300;9.182;2023-04-24T16:35:37;8.80;99.90
4183;DHT22;2105;52.300;9.182;2023-04-24T16:38:04;8.90;99.90
4183;DHT22;2105;52.300;9.182;2023-04-24T16:40:30;8.90;99.90
4183;DHT22;2105;52.300;9.182;2023-04-24T16:42:57;8.90;99.90
4183;DHT22;2105;52.300;9.182;2023-04-24T16:45:24;8.90;99.90
4183;DHT22;2105;52.300;9.182;2023-04-24T16:47:50;8.90;99.90
4183;DHT22;2105;52.300;9.182;2023-04-24T16:50:17;8.90;99.90
4183;DHT22;2105;52.300;9.182;2023-04-24T16:52:45;8.90;99.90
4183;DHT22;2105;52.300;9.182;2023-04-24T16:55:11;8.90;1.00
4183;DHT22;2105;52.300;9.182;2023-04-24T16:57:38;8.80;1.00
4183;DHT22;2105;52.300;9.182;2023-04-24T17:00:06;8.90;1.00
4183;DHT22;2105;52.300;9.182;2023-04-24T17:02:33;8.80;1.00
4183;DHT22;2105;52.300;9.182;2023-04-24T17:04:59;8.80;1.00
4183;DHT22;2105;52.300;9.182;2023-04-24T17:07:26;8.80;1.00
4183;DHT22;2105;52.300;9.182;2023-04-24T17:09:54;8.80;1.00
4183;DHT22;2105;52.300;9.182;2023-04-24T17:12:21;8.80;1.00
4183;DHT22;2105;52.300;9.182;2023-04-24T17:14:47;8.70;99.90
4183;DHT22;2105;52.300;9.182;2023-04-24T17:17:14;8.70;99.90
4183;DHT22;2105;52.300;9.182;2023-04-24T17:19:41;8.70;99.90
4183;DHT22;2105;52.300;9.182;2023-04-24T17:22:08;8.70;99.90
4183;DHT22;2105;52.300;9.182;2023-04-24T17:24:34;8.70;1.00
4183;DHT22;2105;52.300;9.182;2023-04-24T17:27:02;8.80;99.90
4183;DHT22;2105;52.300;9.182;2023-04-24T17:29:29;8.70;99.90
4183;DHT22;2105;52.300;9.182;2023-04-24T17:31:56;8.70;99.90
4183;DHT22;2105;52.300;9.182;2023-04-24T17:34:22;8.70;1.00
4183;DHT22;2105;52.300;9.182;2023-04-24T17:36:49;8.70;1.00
4183;DHT22;2105;52.300;9.182;2023-04-24T17:39:16;8.70;1.00
4183;DHT22;2105;52.300;9.182;2023-04-24T17:41:42;8.70;1.00
4183;DHT22;2105;52.300;9.182;2023-04-24T17:44:10;8.80;99.90
4183;DHT22;2105;52.300;9.182;2023-04-24T17:46:37;9.00;99.90
4183;DHT22;2105;52.300;9.182;2023-04-24T17:49:03;9.00;1.00
4183;DHT22;2105;52.300;9.182;2023-04-24T17:51:30;9.00;1.00
4183;DHT22;2105;52.300;9.182;2023-04-24T17:53:57;8.90;99.90
4183;DHT22;2105;52.300;9.182;2023-04-24T17:56:23;8.80;1.00
4183;DHT22;2105;52.300;9.182;2023-04-24T17:58:50;8.70;1.00
4183;DHT22;2105;52.300;9.182;2023-04-24T18:01:18;8.60;99.90
4183;DHT22;2105;52.300;9.182;2023-04-24T18:03:45;8.60;99.90
4183;DHT22;2105;52.300;9.182;2023-04-24T18:06:11;8.50;1.00
4183;DHT22;2105;52.300;9.182;2023-04-24T18:08:41;8.50;1.00
4183;DHT22;2105;52.300;9.182;2023-04-24T18:11:08;8.50;1.00
4183;DHT22;2105;52.300;9.182;2023-04-24T18:13:35;8.50;1.00
4183;DHT22;2105;52.300;9.182;2023-04-24T18:16:01;8.40;1.00
4183;DHT22;2105;52.300;9.182;2023-04-24T18:18:29;8.40;99.90
4183;DHT22;2105;52.300;9.182;2023-04-24T18:20:56;8.40;99.90
4183;DHT22;2105;52.300;9.182;2023-04-24T18:23:23;8.30;1.00
4183;DHT22;2105;52.300;9.182;2023-04-24T18:25:49;8.20;1.00
4183;DHT22;2105;52.300;9.182;2023-04-24T18:28:16;8.20;1.00
4183;DHT22;2105;52.300;9.182;2023-04-24T18:30:42;8.20;99.90